Time;durP1;ratioP1;P1;durP2;ratioP2;P2;SDS_P1;SDS_P2;PMS_P1;PMS_P2;Temp;Humidity;BMP_temperature;BMP_pressure;BME280_temperature;BME280_humidity;BME280_pressure;Samples;Min_cycle;Max_cycle;Signal;HPM_P1;HPM_P2
2023/09/10 00:02:21;;;;;;;;;;;;;;;;;;2210644;66;2533;-19
2023/09/10 00:04:51;;;;;;;;;;;;;;;;;;2208393;59;2486;-21
2023/09/10 00:07:21;;;;;;;;;;;;;;;;;;2209556;66;2497;-20
2023/09/10 00:09:52;;;;;;;;;;;;;;;;;;2209151;59;4001;-20
2023/09/10 00:12:22;;;;;;;;;;;;;;;;;;2208678;59;3899;-19
2023/09/10 00:14:52;;;;;;;;;;;;;;;;;;2212503;66;3882;-21
2023/09/10 00:17:22;;;;;;;;;;;;;;;;;;2209481;59;3718;-21
2023/09/10 00:19:53;;;;;;;;;;;;;;;;;;2209050;66;1862;-20
2023/09/10 00:22:23;;;;;;;;;;;;;;;;;;2209412;66;2857;-21
2023/09/10 00:24:53;;;;;;;;;;;;;;;;;;2208948;66;3256;-20
2023/09/10 00:27:23;;;;;;;;;;;;;;;;;;2209020;59;3827;-20
2023/09/10 00:29:53;;;;;;;;;;;;;;;;;;2208582;59;2821;-20
2023/09/10 00:32:24;;;;;;;;;;;;;;;;;;2207922;59;4306;-20
2023/09/10 00:34:54;;;;;;;;;;;;;;;;;;2208300;59;3092;-20
2023/09/10 00:37:24;;;;;;;;;;;;;;;;;;2209205;66;2861;-20
2023/09/10 00:39:54;;;;;;;;;;;;;;;;;;2208435;66;3651;-20
2023/09/10 00:42:25;;;;;;;;;;;;;;;;;;2209171;59;2290;-20
2023/09/10 00:44:56;;;;;;;;;;;;;;;;;;2209069;59;3228;-20
2023/09/10 00:47:27;;;;;;;;;;;;;;;;;;2209304;66;2230;-20
2023/09/10 00:49:57;;;;;;;;;;;;;;;;;;2209314;59;3779;-20
2023/09/10 00:52:28;;;;;;;;;;;;;;;;;;2209198;59;2417;-20
2023/09/10 00:54:59;;;;;;;;;;;;;;;;;;2207765;59;3007;-19
2023/09/10 00:57:29;;;;;;;;;;;;;;;;;;2209597;59;4527;-20
2023/09/10 00:59:59;;;;;;;;;;;;;;;;;;2208730;59;3507;-21
2023/09/10 01:02:30;;;;;;;;;;;;;;;;;;2209472;66;2753;-21
2023/09/10 01:05:04;;;;;;;;;;;;;;;;;;2208382;66;2121;-21
2023/09/10 01:07:34;;;;;;;;;;;;;;;;;;2208872;66;4262;-20
2023/09/10 01:10:06;;;;;;;;;;;;;;;;;;2211365;59;4048;-21
2023/09/10 01:12:43;;;;;;;;;;;;;;;;;;2208824;59;2606;-20
2023/09/10 01:15:19;;;;;;;;;;;;;;;;;;2209195;59;2649;-20
2023/09/10 01:18:03;;;;;;;;;;;;;;;;;;2208310;59;2541;-20
2023/09/10 01:20:48;;;;;;;;;;;;;;;;;;2210348;66;2824;-21
2023/09/10 01:23:36;;;;;;;;;;;;;;;;;;2210331;66;3229;-20
2023/09/10 01:26:06;;;;;;;;;;;;;;;;;;2209683;59;4179;-20
2023/09/10 01:28:36;;;;;;;;;;;;;;;;;;2206382;58;3505;-20
2023/09/10 01:31:07;;;;;;;;;;;;;;;;;;2209865;66;2860;-19
2023/09/10 01:33:40;;;;;;;;;;;;;;;;;;2209366;59;2153;-21
2023/09/10 01:36:24;;;;;;;;;;;;;;;;;;2208642;59;2309;-20
2023/09/10 01:39:07;;;;;;;;;;;;;;;;;;2208652;66;2186;-21
2023/09/10 01:41:38;;;;;;;;;;;;;;;;;;2209215;59;2170;-20
2023/09/10 01:44:09;;;;;;;;;;;;;;;;;;2211682;59;3555;-19
2023/09/10 01:46:39;;;;;;;;;;;;;;;;;;2209514;59;2430;-20
2023/09/10 01:49:10;;;;;;;;;;;;;;;;;;2209035;59;2572;-20
2023/09/10 01:51:40;;;;;;;;;;;;;;;;;;2209544;59;2481;-20
2023/09/10 01:54:10;;;;;;;;;;;;;;;;;;2208762;59;3392;-20
2023/09/10 01:56:40;;;;;;;;;;;;;;;;;;2208574;59;3566;-20
2023/09/10 01:59:10;;;;;;;;;;;;;;;;;;2208835;66;2585;-20
2023/09/10 02:01:41;;;;;;;;;;;;;;;;;;2208821;59;3535;-20
2023/09/10 02:04:11;;;;;;;;;;;;;;;;;;2208448;66;2670;-19
2023/09/10 02:06:41;;;;;;;;;;;;;;;;;;2209048;66;2763;-20
2023/09/10 02:09:11;;;;;;;;;;;;;;;;;;2209246;59;2669;-20
2023/09/10 02:11:42;;;;;;;;;;;;;;;;;;2209223;59;3002;-19
2023/09/10 02:14:12;;;;;;;;;;;;;;;;;;2209356;59;2608;-20
2023/09/10 02:16:42;;;;;;;;;;;;;;;;;;2208563;66;2903;-20
2023/09/10 02:19:13;;;;;;;;;;;;;;;;;;2209084;59;3230;-20
2023/09/10 02:21:43;;;;;;;;;;;;;;;;;;2209795;66;3417;-20
2023/09/10 02:24:14;;;;;;;;;;;;;;;;;;2211263;66;2711;-20
2023/09/10 02:26:44;;;;;;;;;;;;;;;;;;2209425;59;3230;-20
2023/09/10 02:29:14;;;;;;;;;;;;;;;;;;2208476;59;3634;-20
2023/09/10 02:31:44;;;;;;;;;;;;;;;;;;2208912;66;2647;-20
2023/09/10 02:34:14;;;;;;;;;;;;;;;;;;2208555;59;3401;-20
2023/09/10 02:36:45;;;;;;;;;;;;;;;;;;2209343;59;3364;-19
2023/09/10 02:39:15;;;;;;;;;;;;;;;;;;2210115;61;1885;-20
2023/09/10 02:41:45;;;;;;;;;;;;;;;;;;2211273;66;2387;-20
2023/09/10 02:44:16;;;;;;;;;;;;;;;;;;2209366;66;3640;-19
2023/09/10 02:46:46;;;;;;;;;;;;;;;;;;2209610;59;2299;-20
2023/09/10 02:49:19;;;;;;;;;;;;;;;;;;2209297;59;3678;-20
2023/09/10 02:51:49;;;;;;;;;;;;;;;;;;2209081;59;2402;-19
2023/09/10 02:54:19;;;;;;;;;;;;;;;;;;2208815;59;3861;-20
2023/09/10 02:56:50;;;;;;;;;;;;;;;;;;2209464;59;3682;-21
2023/09/10 02:59:21;;;;;;;;;;;;;;;;;;2210023;66;3927;-20
2023/09/10 03:01:52;;;;;;;;;;;;;;;;;;2208636;59;3345;-20
2023/09/10 03:04:22;;;;;;;;;;;;;;;;;;2209689;66;3014;-20
2023/09/10 03:06:53;;;;;;;;;;;;;;;;;;2208754;66;4106;-20
2023/09/10 03:09:23;;;;;;;;;;;;;;;;;;2209408;59;2393;-20
2023/09/10 03:11:57;;;;;;;;;;;;;;;;;;2209459;59;3198;-19
2023/09/10 03:14:27;;;;;;;;;;;;;;;;;;2209127;66;2806;-20
2023/09/10 03:16:58;;;;;;;;;;;;;;;;;;2209342;66;2450;-20
2023/09/10 03:19:28;;;;;;;;;;;;;;;;;;2208821;59;2540;-20
2023/09/10 03:21:58;;;;;;;;;;;;;;;;;;2209057;66;3749;-19
2023/09/10 03:24:35;;;;;;;;;;;;;;;;;;2209398;66;4046;-20
2023/09/10 03:27:06;;;;;;;;;;;;;;;;;;2209746;66;1789;-20
2023/09/10 03:29:36;;;;;;;;;;;;;;;;;;2209404;66;3412;-20
2023/09/10 03:32:06;;;;;;;;;;;;;;;;;;2209452;59;3653;-20
2023/09/10 03:34:36;;;;;;;;;;;;;;;;;;2212790;66;3420;-20
2023/09/10 03:37:07;;;;;;;;;;;;;;;;;;2207194;66;2552;-19
2023/09/10 03:39:37;;;;;;;;;;;;;;;;;;2209671;66;3559;-19
2023/09/10 03:42:08;;;;;;;;;;;;;;;;;;2208453;66;2775;-20
2023/09/10 03:44:38;;;;;;;;;;;;;;;;;;2209580;59;3971;-20
2023/09/10 03:47:08;;;;;;;;;;;;;;;;;;2208925;66;3552;-20
2023/09/10 03:49:38;;;;;;;;;;;;;;;;;;2208507;66;2470;-20
2023/09/10 03:52:20;;;;;;;;;;;;;;;;;;2208813;59;3833;-20
2023/09/10 03:54:50;;;;;;;;;;;;;;;;;;2208814;59;4119;-19
2023/09/10 03:57:20;;;;;;;;;;;;;;;;;;2208253;59;2232;-20
2023/09/10 03:59:50;;;;;;;;;;;;;;;;;;2208086;59;3324;-20
2023/09/10 04:02:24;;;;;;;;;;;;;;;;;;2208874;66;2691;-19
2023/09/10 04:04:55;;;;;;;;;;;;;;;;;;2209395;66;2710;-20
2023/09/10 04:07:25;;;;;;;;;;;;;;;;;;2208772;66;3492;-20
2023/09/10 04:09:55;;;;;;;;;;;;;;;;;;2210203;59;2272;-20
2023/09/10 04:12:25;;;;;;;;;;;;;;;;;;2209928;59;2703;-20
2023/09/10 04:14:55;;;;;;;;;;;;;;;;;;2209568;66;2308;-20
2023/09/10 04:17:28;;;;;;;;;;;;;;;;;;2206612;59;3803;-19
2023/09/10 04:19:58;;;;;;;;;;;;;;;;;;2209001;59;3426;-19
2023/09/10 04:22:29;;;;;;;;;;;;;;;;;;2209282;66;3047;-20
2023/09/10 04:24:59;;;;;;;;;;;;;;;;;;2210400;66;2969;-20
2023/09/10 04:27:29;;;;;;;;;;;;;;;;;;2208130;66;2989;-20
2023/09/10 04:29:59;;;;;;;;;;;;;;;;;;2209610;59;4100;-20
2023/09/10 04:32:30;;;;;;;;;;;;;;;;;;2209509;59;3560;-20
2023/09/10 04:35:00;;;;;;;;;;;;;;;;;;2209717;66;3768;-20
2023/09/10 04:37:30;;;;;;;;;;;;;;;;;;2207673;59;2834;-20
2023/09/10 04:40:05;;;;;;;;;;;;;;;;;;2209653;59;2457;-20
2023/09/10 04:42:35;;;;;;;;;;;;;;;;;;2210299;66;2576;-20
2023/09/10 04:45:06;;;;;;;;;;;;;;;;;;2209524;59;2807;-19
2023/09/10 04:47:36;;;;;;;;;;;;;;;;;;2209930;66;2446;-20
2023/09/10 04:50:07;;;;;;;;;;;;;;;;;;2208417;66;3866;-20
2023/09/10 04:52:37;;;;;;;;;;;;;;;;;;2209433;59;2727;-20
2023/09/10 04:55:07;;;;;;;;;;;;;;;;;;2208877;59;2771;-20
2023/09/10 04:57:38;;;;;;;;;;;;;;;;;;2209421;59;2740;-19
2023/09/10 05:00:09;;;;;;;;;;;;;;;;;;2209385;59;2605;-20
2023/09/10 05:02:39;;;;;;;;;;;;;;;;;;2209335;66;2804;-19
2023/09/10 05:05:09;;;;;;;;;;;;;;;;;;2211795;66;2328;-20
2023/09/10 05:07:39;;;;;;;;;;;;;;;;;;2210884;66;4005;-20
2023/09/10 05:10:10;;;;;;;;;;;;;;;;;;2209332;59;2563;-20
2023/09/10 05:12:40;;;;;;;;;;;;;;;;;;2210255;59;3581;-20
2023/09/10 05:15:12;;;;;;;;;;;;;;;;;;2210122;66;3888;-20
2023/09/10 05:17:42;;;;;;;;;;;;;;;;;;2208817;59;2727;-20
2023/09/10 05:20:12;;;;;;;;;;;;;;;;;;2209380;66;3467;-21
2023/09/10 05:22:42;;;;;;;;;;;;;;;;;;2210900;66;2506;-20
2023/09/10 05:25:13;;;;;;;;;;;;;;;;;;2209388;66;2416;-19
2023/09/10 05:27:46;;;;;;;;;;;;;;;;;;2209711;59;3301;-20
2023/09/10 05:30:16;;;;;;;;;;;;;;;;;;2209761;66;2611;-20
2023/09/10 05:32:46;;;;;;;;;;;;;;;;;;2208935;59;3479;-20
2023/09/10 05:35:16;;;;;;;;;;;;;;;;;;2208243;66;2620;-20
2023/09/10 05:37:46;;;;;;;;;;;;;;;;;;2208148;66;2653;-20
2023/09/10 05:40:17;;;;;;;;;;;;;;;;;;2208778;66;3345;-19
2023/09/10 05:42:47;;;;;;;;;;;;;;;;;;2209330;66;2683;-20
2023/09/10 05:45:18;;;;;;;;;;;;;;;;;;2209483;59;4008;-19
2023/09/10 05:47:48;;;;;;;;;;;;;;;;;;2209786;66;2303;-20
2023/09/10 05:50:18;;;;;;;;;;;;;;;;;;2208753;66;3983;-20
2023/09/10 05:52:50;;;;;;;;;;;;;;;;;;2210865;59;2817;-20
2023/09/10 05:55:20;;;;;;;;;;;;;;;;;;2208991;59;2214;-20
2023/09/10 05:57:52;;;;;;;;;;;;;;;;;;2209110;66;2178;-20
2023/09/10 06:00:22;;;;;;;;;;;;;;;;;;2208966;59;3705;-20
2023/09/10 06:02:52;;;;;;;;;;;;;;;;;;2210185;66;3217;-20
2023/09/10 06:05:22;;;;;;;;;;;;;;;;;;2207388;66;2768;-20
2023/09/10 06:07:53;;;;;;;;;;;;;;;;;;2211421;66;3876;-20
2023/09/10 06:10:23;;;;;;;;;;;;;;;;;;2209846;59;3915;-20
2023/09/10 06:12:53;;;;;;;;;;;;;;;;;;2209363;59;3300;-20
2023/09/10 06:15:23;;;;;;;;;;;;;;;;;;2205531;66;3474;-20
2023/09/10 06:17:53;;;;;;;;;;;;;;;;;;2206333;59;2538;-20
2023/09/10 06:20:24;;;;;;;;;;;;;;;;;;2209950;66;2657;-20
2023/09/10 06:22:56;;;;;;;;;;;;;;;;;;2209494;66;2803;-20
2023/09/10 06:25:27;;;;;;;;;;;;;;;;;;2208919;59;3947;-19
2023/09/10 06:27:57;;;;;;;;;;;;;;;;;;2209045;59;3681;-21
2023/09/10 06:30:27;;;;;;;;;;;;;;;;;;2208604;66;3122;-20
2023/09/10 06:32:57;;;;;;;;;;;;;;;;;;2209311;66;2651;-20
2023/09/10 06:35:27;;;;;;;;;;;;;;;;;;2209965;66;3474;-20
2023/09/10 06:37:58;;;;;;;;;;;;;;;;;;2207868;59;2652;-21
2023/09/10 06:40:28;;;;;;;;;;;;;;;;;;2207742;59;3503;-20
2023/09/10 06:42:58;;;;;;;;;;;;;;;;;;2205742;66;2521;-20
2023/09/10 06:45:28;;;;;;;;;;;;;;;;;;2208660;59;2875;-21
2023/09/10 06:47:59;;;;;;;;;;;;;;;;;;2209440;66;3587;-20
2023/09/10 06:50:29;;;;;;;;;;;;;;;;;;2208558;59;3494;-20
2023/09/10 06:52:59;;;;;;;;;;;;;;;;;;2208394;59;2330;-21
2023/09/10 06:55:29;;;;;;;;;;;;;;;;;;2209323;59;2885;-21
2023/09/10 06:57:59;;;;;;;;;;;;;;;;;;2209427;66;3882;-20
2023/09/10 07:00:30;;;;;;;;;;;;;;;;;;2208167;59;2579;-20
2023/09/10 07:03:02;;;;;;;;;;;;;;;;;;2209678;66;2723;-20
2023/09/10 07:05:32;;;;;;;;;;;;;;;;;;2208878;59;2465;-20
2023/09/10 07:08:02;;;;;;;;;;;;;;;;;;2208874;59;2563;-20
2023/09/10 07:10:36;;;;;;;;;;;;;;;;;;2208827;59;3435;-20
2023/09/10 07:13:07;;;;;;;;;;;;;;;;;;2210467;59;2881;-20
2023/09/10 07:15:37;;;;;;;;;;;;;;;;;;2210412;66;2585;-20
2023/09/10 07:18:07;;;;;;;;;;;;;;;;;;2209172;59;3900;-21
2023/09/10 07:20:38;;;;;;;;;;;;;;;;;;2209740;66;3942;-20
2023/09/10 07:23:08;;;;;;;;;;;;;;;;;;2209418;66;3432;-20
2023/09/10 07:25:39;;;;;;;;;;;;;;;;;;2210111;66;3200;-21
2023/09/10 07:28:09;;;;;;;;;;;;;;;;;;2209182;59;2676;-20
2023/09/10 07:30:39;;;;;;;;;;;;;;;;;;2209290;59;2217;-18
2023/09/10 07:33:09;;;;;;;;;;;;;;;;;;2209012;66;2561;-18
2023/09/10 07:35:40;;;;;;;;;;;;;;;;;;2208765;66;3424;-18
2023/09/10 07:38:10;;;;;;;;;;;;;;;;;;2209267;66;2418;-18
2023/09/10 07:40:40;;;;;;;;;;;;;;;;;;2208226;59;2734;-18
2023/09/10 07:43:12;;;;;;;;;;;;;;;;;;2211143;66;2594;-18
2023/09/10 07:45:44;;;;;;;;;;;;;;;;;;2209036;59;3700;-18
2023/09/10 07:48:14;;;;;;;;;;;;;;;;;;2210991;66;3861;-19
2023/09/10 07:50:55;;;;;;;;;;;;;;;;;;2210873;59;2605;-18
2023/09/10 07:53:25;;;;;;;;;;;;;;;;;;2209809;58;3333;-18
2023/09/10 07:55:56;;;;;;;;;;;;;;;;;;2209667;59;2215;-18
2023/09/10 07:58:26;;;;;;;;;;;;;;;;;;2209928;66;2674;-18
2023/09/10 08:00:56;;;;;;;;;;;;;;;;;;2209595;59;2416;-18
2023/09/10 08:03:27;;;;;;;;;;;;;;;;;;2208998;59;2799;-17
2023/09/10 08:05:58;;;;;;;;;;;;;;;;;;2213248;58;3447;-18
2023/09/10 08:08:28;;;;;;;;;;;;;;;;;;2209850;59;3986;-18
2023/09/10 08:10:59;;;;;;;;;;;;;;;;;;2209535;59;3813;-18
2023/09/10 08:13:29;;;;;;;;;;;;;;;;;;2209708;59;3137;-18
2023/09/10 08:15:59;;;;;;;;;;;;;;;;;;2210267;66;3735;-18
2023/09/10 08:18:29;;;;;;;;;;;;;;;;;;2210365;59;3141;-18
2023/09/10 08:20:59;;;;;;;;;;;;;;;;;;2209638;66;1767;-18
2023/09/10 08:23:30;;;;;;;;;;;;;;;;;;2208949;59;2366;-19
2023/09/10 08:26:00;;;;;;;;;;;;;;;;;;2209244;59;2342;-19
2023/09/10 08:28:30;;;;;;;;;;;;;;;;;;2207797;59;3299;-17
2023/09/10 08:31:00;;;;;;;;;;;;;;;;;;2209664;66;2845;-18
2023/09/10 08:33:31;;;;;;;;;;;;;;;;;;2209801;59;2842;-18
2023/09/10 08:36:01;;;;;;;;;;;;;;;;;;2209569;66;2903;-18
2023/09/10 08:38:32;;;;;;;;;;;;;;;;;;2208840;66;2469;-19
2023/09/10 08:41:12;;;;;;;;;;;;;;;;;;2207992;59;3601;-18
2023/09/10 08:43:48;;;;;;;;;;;;;;;;;;2209383;66;3492;-18
2023/09/10 08:46:22;;;;;;;;;;;;;;;;;;2209231;59;3802;-18
2023/09/10 08:48:52;;;;;;;;;;;;;;;;;;2209114;66;3225;-19
2023/09/10 08:51:23;;;;;;;;;;;;;;;;;;2209161;59;3963;-18
2023/09/10 08:53:55;;;;;;;;;;;;;;;;;;2209408;59;2744;-18
2023/09/10 08:56:26;;;;;;;;;;;;;;;;;;2209699;59;2975;-18
2023/09/10 08:58:57;;;;;;;;;;;;;;;;;;2209223;66;2642;-19
2023/09/10 09:01:27;;;;;;;;;;;;;;;;;;2210905;59;3067;-19
2023/09/10 09:03:57;;;;;;;;;;;;;;;;;;2209845;59;3511;-18
2023/09/10 09:06:29;;;;;;;;;;;;;;;;;;2209193;66;2664;-19
2023/09/10 09:09:05;;;;;;;;;;;;;;;;;;2210388;59;2542;-19
2023/09/10 09:11:37;;;;;;;;;;;;;;;;;;2209016;59;2512;-18
2023/09/10 09:14:08;;;;;;;;;;;;;;;;;;2208329;66;2540;-18
2023/09/10 09:16:40;;;;;;;;;;;;;;;;;;2209725;66;3613;-19
2023/09/10 09:19:11;;;;;;;;;;;;;;;;;;2210594;59;2694;-19
2023/09/10 09:21:42;;;;;;;;;;;;;;;;;;2209520;66;3365;-18
2023/09/10 09:24:13;;;;;;;;;;;;;;;;;;2210167;66;2389;-18
2023/09/10 09:26:44;;;;;;;;;;;;;;;;;;2209078;59;3469;-18
2023/09/10 09:29:14;;;;;;;;;;;;;;;;;;2209499;59;2588;-18
2023/09/10 09:31:44;;;;;;;;;;;;;;;;;;2209375;59;2792;-19
2023/09/10 09:34:15;;;;;;;;;;;;;;;;;;2210805;66;2530;-18
2023/09/10 09:36:49;;;;;;;;;;;;;;;;;;2209569;66;2721;-18
2023/09/10 09:39:20;;;;;;;;;;;;;;;;;;2208919;66;2868;-19
2023/09/10 09:41:51;;;;;;;;;;;;;;;;;;2208865;59;3168;-19
2023/09/10 09:44:21;;;;;;;;;;;;;;;;;;2208178;59;2373;-18
2023/09/10 09:46:55;;;;;;;;;;;;;;;;;;2210216;59;2563;-19
2023/09/10 09:49:25;;;;;;;;;;;;;;;;;;2208592;66;3047;-18
2023/09/10 09:51:56;;;;;;;;;;;;;;;;;;2209768;59;2160;-19
2023/09/10 09:54:27;;;;;;;;;;;;;;;;;;2208696;59;2798;-18
2023/09/10 09:56:57;;;;;;;;;;;;;;;;;;2211696;59;3721;-18
2023/09/10 09:59:27;;;;;;;;;;;;;;;;;;2208332;66;2722;-18
2023/09/10 10:01:57;;;;;;;;;;;;;;;;;;2210112;59;3674;-18
2023/09/10 10:04:31;;;;;;;;;;;;;;;;;;2208306;66;5250;-19
2023/09/10 10:07:01;;;;;;;;;;;;;;;;;;2209809;66;2837;-18
2023/09/10 10:09:35;;;;;;;;;;;;;;;;;;2209819;59;3474;-18
2023/09/10 10:12:06;;;;;;;;;;;;;;;;;;2210414;59;4319;-18
2023/09/10 10:14:36;;;;;;;;;;;;;;;;;;2208518;66;3580;-18
2023/09/10 10:17:08;;;;;;;;;;;;;;;;;;2205554;59;1883;-18
2023/09/10 10:19:38;;;;;;;;;;;;;;;;;;2207622;66;3475;-19
2023/09/10 10:22:09;;;;;;;;;;;;;;;;;;2210646;59;2395;-18
2023/09/10 10:24:41;;;;;;;;;;;;;;;;;;2208070;66;3114;-18
2023/09/10 10:27:13;;;;;;;;;;;;;;;;;;2208001;59;3350;-19
2023/09/10 10:29:43;;;;;;;;;;;;;;;;;;2209237;59;2657;-18
2023/09/10 10:32:21;;;;;;;;;;;;;;;;;;2210333;66;2162;-19
2023/09/10 10:34:56;;;;;;;;;;;;;;;;;;2208640;66;3407;-19
2023/09/10 10:37:32;;;;;;;;;;;;;;;;;;2210581;66;3282;-18
2023/09/10 10:40:32;;;;;;;;;;;;;;;;;;2210875;66;2458;-19
2023/09/10 10:43:21;;;;;;;;;;;;;;;;;;2208707;63;2570;-18
2023/09/10 10:45:52;;;;;;;;;;;;;;;;;;2209744;59;2739;-18
2023/09/10 10:48:28;;;;;;;;;;;;;;;;;;2209752;66;2394;-18
2023/09/10 10:50:59;;;;;;;;;;;;;;;;;;2210317;58;2375;-18
2023/09/10 10:53:30;;;;;;;;;;;;;;;;;;2210965;59;2189;-18
2023/09/10 10:56:03;;;;;;;;;;;;;;;;;;2209548;59;2912;-18
2023/09/10 10:58:41;;;;;;;;;;;;;;;;;;2209172;66;2811;-18
2023/09/10 11:01:12;;;;;;;;;;;;;;;;;;2210253;59;3721;-18
2023/09/10 11:03:44;;;;;;;;;;;;;;;;;;2208412;66;2445;-18
2023/09/10 11:06:14;;;;;;;;;;;;;;;;;;2209234;59;2860;-19
2023/09/10 11:08:48;;;;;;;;;;;;;;;;;;2207532;66;4168;-18
2023/09/10 11:11:33;;;;;;;;;;;;;;;;;;2208464;59;2513;-18
2023/09/10 11:14:05;;;;;;;;;;;;;;;;;;2210104;66;3835;-18
2023/09/10 11:16:36;;;;;;;;;;;;;;;;;;2209080;66;3639;-18
2023/09/10 11:19:06;;;;;;;;;;;;;;;;;;2209370;59;3030;-18
2023/09/10 11:21:55;;;;;;;;;;;;;;;;;;2210587;60;2423;-18
2023/09/10 11:24:25;;;;;;;;;;;;;;;;;;2209177;59;2772;-18
2023/09/10 11:27:14;;;;;;;;;;;;;;;;;;2209912;59;3339;-18
2023/09/10 11:29:44;;;;;;;;;;;;;;;;;;2209233;59;3048;-19
2023/09/10 11:32:17;;;;;;;;;;;;;;;;;;2212163;59;3388;-18
2023/09/10 11:34:50;;;;;;;;;;;;;;;;;;2208678;59;3506;-19
2023/09/10 11:37:22;;;;;;;;;;;;;;;;;;2211028;66;3286;-18
2023/09/10 11:39:53;;;;;;;;;;;;;;;;;;2209628;59;2669;-18
2023/09/10 11:42:23;;;;;;;;;;;;;;;;;;2206420;66;2435;-18
2023/09/10 11:44:55;;;;;;;;;;;;;;;;;;2209042;59;2525;-18
2023/09/10 11:47:26;;;;;;;;;;;;;;;;;;2210930;66;3361;-18
2023/09/10 11:50:03;;;;;;;;;;;;;;;;;;2210109;66;2673;-19
2023/09/10 11:52:34;;;;;;;;;;;;;;;;;;2209787;59;3103;-18
2023/09/10 11:55:10;;;;;;;;;;;;;;;;;;2210848;59;2958;-18
2023/09/10 11:57:41;;;;;;;;;;;;;;;;;;2209118;59;3302;-18
2023/09/10 12:00:11;;;;;;;;;;;;;;;;;;2209249;59;2434;-19
2023/09/10 12:02:42;;;;;;;;;;;;;;;;;;2209638;66;3304;-18
2023/09/10 12:05:12;;;;;;;;;;;;;;;;;;2210604;66;2616;-19
2023/09/10 12:07:44;;;;;;;;;;;;;;;;;;2208162;63;3676;-18
2023/09/10 12:10:14;;;;;;;;;;;;;;;;;;2208957;59;2691;-19
2023/09/10 12:12:48;;;;;;;;;;;;;;;;;;2210068;59;1931;-18
2023/09/10 12:15:18;;;;;;;;;;;;;;;;;;2210315;66;2963;-18
2023/09/10 12:17:49;;;;;;;;;;;;;;;;;;2209549;66;2296;-18
2023/09/10 12:20:20;;;;;;;;;;;;;;;;;;2208689;59;3012;-18
2023/09/10 12:22:50;;;;;;;;;;;;;;;;;;2210184;66;2612;-18
2023/09/10 12:25:21;;;;;;;;;;;;;;;;;;2209654;59;2336;-19
2023/09/10 12:27:51;;;;;;;;;;;;;;;;;;2209551;59;3220;-18
2023/09/10 12:30:21;;;;;;;;;;;;;;;;;;2209891;59;2337;-18
2023/09/10 12:32:52;;;;;;;;;;;;;;;;;;2208633;59;3375;-18
2023/09/10 12:35:23;;;;;;;;;;;;;;;;;;2208964;66;3981;-18
2023/09/10 12:37:54;;;;;;;;;;;;;;;;;;2209388;59;2754;-18
2023/09/10 12:40:24;;;;;;;;;;;;;;;;;;2207327;66;3989;-18
2023/09/10 12:42:55;;;;;;;;;;;;;;;;;;2210064;66;2429;-18
2023/09/10 12:45:25;;;;;;;;;;;;;;;;;;2208290;59;2869;-18
2023/09/10 12:47:55;;;;;;;;;;;;;;;;;;2208852;66;2541;-18
2023/09/10 12:50:26;;;;;;;;;;;;;;;;;;2208903;66;3519;-18
2023/09/10 12:52:57;;;;;;;;;;;;;;;;;;2209590;59;3510;-18
2023/09/10 12:55:29;;;;;;;;;;;;;;;;;;2210884;59;2406;-18
2023/09/10 12:57:59;;;;;;;;;;;;;;;;;;2206398;66;2653;-18
2023/09/10 13:00:29;;;;;;;;;;;;;;;;;;2210540;59;2458;-18
2023/09/10 13:02:59;;;;;;;;;;;;;;;;;;2209311;66;2325;-18
2023/09/10 13:05:30;;;;;;;;;;;;;;;;;;2209521;66;2601;-19
2023/09/10 13:08:00;;;;;;;;;;;;;;;;;;2209854;66;3138;-18
2023/09/10 13:10:30;;;;;;;;;;;;;;;;;;2211936;59;2612;-18
2023/09/10 13:13:00;;;;;;;;;;;;;;;;;;2209452;59;2493;-18
2023/09/10 13:15:31;;;;;;;;;;;;;;;;;;2209713;66;2363;-18
2023/09/10 13:18:01;;;;;;;;;;;;;;;;;;2210222;66;2340;-18
2023/09/10 13:20:32;;;;;;;;;;;;;;;;;;2209093;66;2682;-18
2023/09/10 13:23:02;;;;;;;;;;;;;;;;;;2212077;66;2906;-18
2023/09/10 13:25:33;;;;;;;;;;;;;;;;;;2211112;59;2700;-18
2023/09/10 13:28:03;;;;;;;;;;;;;;;;;;2209963;59;4605;-18
2023/09/10 13:30:34;;;;;;;;;;;;;;;;;;2209781;66;3088;-18
2023/09/10 13:33:04;;;;;;;;;;;;;;;;;;2209367;66;3147;-17
2023/09/10 13:35:37;;;;;;;;;;;;;;;;;;2211411;66;3236;-18
2023/09/10 13:38:07;;;;;;;;;;;;;;;;;;2211109;66;2147;-18
2023/09/10 13:40:39;;;;;;;;;;;;;;;;;;2209169;66;3636;-18
2023/09/10 13:43:09;;;;;;;;;;;;;;;;;;2209778;66;2843;-18
2023/09/10 13:45:40;;;;;;;;;;;;;;;;;;2208989;59;3744;-18
2023/09/10 13:48:10;;;;;;;;;;;;;;;;;;2208892;66;2820;-18
2023/09/10 13:50:40;;;;;;;;;;;;;;;;;;2208738;66;3366;-18
2023/09/10 13:53:10;;;;;;;;;;;;;;;;;;2211822;59;3044;-18
2023/09/10 13:55:41;;;;;;;;;;;;;;;;;;2209032;66;2528;-18
2023/09/10 13:58:11;;;;;;;;;;;;;;;;;;2210522;66;3476;-18
2023/09/10 14:00:42;;;;;;;;;;;;;;;;;;2209830;59;2246;-18
2023/09/10 14:03:12;;;;;;;;;;;;;;;;;;2210992;66;3589;-18
2023/09/10 14:05:42;;;;;;;;;;;;;;;;;;2211434;59;2779;-18
2023/09/10 14:08:12;;;;;;;;;;;;;;;;;;2209185;66;3494;-17
2023/09/10 14:10:43;;;;;;;;;;;;;;;;;;2212925;53;3612;-19
2023/09/10 14:13:13;;;;;;;;;;;;;;;;;;2216539;58;2591;-19
2023/09/10 14:15:43;;;;;;;;;;;;;;;;;;2220733;58;2423;-19
2023/09/10 14:18:14;;;;;;;;;;;;;;;;;;2221458;58;2449;-19
2023/09/10 14:20:44;;;;;;;;;;;;;;;;;;2220038;59;3438;-19
2023/09/10 14:23:14;;;;;;;;;;;;;;;;;;2219841;66;2237;-19
2023/09/10 14:25:47;;;;;;;;;;;;;;;;;;2215996;58;2252;-19
2023/09/10 14:28:17;;;;;;;;;;;;;;;;;;2218442;58;3411;-19
2023/09/10 14:30:48;;;;;;;;;;;;;;;;;;2219847;59;2356;-19
2023/09/10 14:33:19;;;;;;;;;;;;;;;;;;2216069;59;2881;-19
2023/09/10 14:35:52;;;;;;;;;;;;;;;;;;2218931;64;2623;-19
2023/09/10 14:38:22;;;;;;;;;;;;;;;;;;2215143;59;3275;-19
2023/09/10 14:40:52;;;;;;;;;;;;;;;;;;2218657;58;3253;-19
2023/09/10 14:43:23;;;;;;;;;;;;;;;;;;2218483;66;2369;-19
2023/09/10 14:45:53;;;;;;;;;;;;;;;;;;2214986;58;4596;-19
2023/09/10 14:48:23;;;;;;;;;;;;;;;;;;2217556;58;3350;-19
2023/09/10 14:50:53;;;;;;;;;;;;;;;;;;2218097;58;3863;-19
2023/09/10 14:53:23;;;;;;;;;;;;;;;;;;2215891;66;2776;-19
2023/09/10 14:55:55;;;;;;;;;;;;;;;;;;2218154;58;2442;-20
2023/09/10 14:58:25;;;;;;;;;;;;;;;;;;2219119;66;3485;-19
2023/09/10 15:00:57;;;;;;;;;;;;;;;;;;2219683;58;4125;-19
2023/09/10 15:03:27;;;;;;;;;;;;;;;;;;2215767;59;2444;-19
2023/09/10 15:05:58;;;;;;;;;;;;;;;;;;2219695;58;1576;-19
2023/09/10 15:08:28;;;;;;;;;;;;;;;;;;2216120;66;2254;-19
2023/09/10 15:10:58;;;;;;;;;;;;;;;;;;2218351;59;2553;-19
2023/09/10 15:13:29;;;;;;;;;;;;;;;;;;2219893;58;2425;-21
2023/09/10 15:16:00;;;;;;;;;;;;;;;;;;2219993;66;2301;-21
2023/09/10 15:18:31;;;;;;;;;;;;;;;;;;2216134;59;2231;-21
2023/09/10 15:21:02;;;;;;;;;;;;;;;;;;2215545;66;2419;-21
2023/09/10 15:23:33;;;;;;;;;;;;;;;;;;2219882;66;2447;-21
2023/09/10 15:26:03;;;;;;;;;;;;;;;;;;2219053;58;2357;-21
2023/09/10 15:28:33;;;;;;;;;;;;;;;;;;2219072;58;2614;-21
2023/09/10 15:31:03;;;;;;;;;;;;;;;;;;2218492;58;3232;-21
2023/09/10 15:33:34;;;;;;;;;;;;;;;;;;2219127;66;2597;-21
2023/09/10 15:36:04;;;;;;;;;;;;;;;;;;2218739;58;2791;-21
2023/09/10 15:38:34;;;;;;;;;;;;;;;;;;2218752;59;2268;-21
2023/09/10 15:41:04;;;;;;;;;;;;;;;;;;2218250;58;2489;-21
2023/09/10 15:43:35;;;;;;;;;;;;;;;;;;2219386;59;1735;-21
2023/09/10 15:46:05;;;;;;;;;;;;;;;;;;2220331;58;2340;-21
2023/09/10 15:48:35;;;;;;;;;;;;;;;;;;2217847;58;2988;-21
2023/09/10 15:51:05;;;;;;;;;;;;;;;;;;2219321;58;2029;-21
2023/09/10 15:53:37;;;;;;;;;;;;;;;;;;2213752;59;2260;-21
2023/09/10 15:56:07;;;;;;;;;;;;;;;;;;2218356;58;3348;-21
2023/09/10 15:58:37;;;;;;;;;;;;;;;;;;2219649;66;3304;-21
2023/09/10 16:01:08;;;;;;;;;;;;;;;;;;2216335;58;2089;-21
2023/09/10 16:03:38;;;;;;;;;;;;;;;;;;2221510;58;1772;-21
2023/09/10 16:06:10;;;;;;;;;;;;;;;;;;2220536;58;2513;-21
2023/09/10 16:08:40;;;;;;;;;;;;;;;;;;2216318;66;2913;-21
2023/09/10 16:11:11;;;;;;;;;;;;;;;;;;2220405;58;2510;-21
2023/09/10 16:13:43;;;;;;;;;;;;;;;;;;2215889;66;2721;-21
2023/09/10 16:16:13;;;;;;;;;;;;;;;;;;2219238;66;3976;-21
2023/09/10 16:18:43;;;;;;;;;;;;;;;;;;2218590;58;2695;-21
2023/09/10 16:21:14;;;;;;;;;;;;;;;;;;2216678;59;2344;-21
2023/09/10 16:23:44;;;;;;;;;;;;;;;;;;2219403;59;2251;-21
2023/09/10 16:26:17;;;;;;;;;;;;;;;;;;2220549;58;1912;-21
2023/09/10 16:28:47;;;;;;;;;;;;;;;;;;2219893;58;3197;-21
2023/09/10 16:31:17;;;;;;;;;;;;;;;;;;2220513;58;2515;-21
2023/09/10 16:33:48;;;;;;;;;;;;;;;;;;2219461;58;2657;-18
2023/09/10 16:36:18;;;;;;;;;;;;;;;;;;2216499;59;2610;-18
2023/09/10 16:38:48;;;;;;;;;;;;;;;;;;2220132;58;3476;-18
2023/09/10 16:41:18;;;;;;;;;;;;;;;;;;2220821;66;3205;-18
2023/09/10 16:43:52;;;;;;;;;;;;;;;;;;2220078;59;2387;-18
2023/09/10 16:46:22;;;;;;;;;;;;;;;;;;2219860;58;2173;-18
2023/09/10 16:48:52;;;;;;;;;;;;;;;;;;2215516;59;2560;-18
2023/09/10 16:51:23;;;;;;;;;;;;;;;;;;2219903;58;2447;-18
2023/09/10 16:53:53;;;;;;;;;;;;;;;;;;2216458;58;2381;-18
2023/09/10 16:56:23;;;;;;;;;;;;;;;;;;2214122;59;3222;-18
2023/09/10 16:58:55;;;;;;;;;;;;;;;;;;2219553;58;3386;-18
2023/09/10 17:01:34;;;;;;;;;;;;;;;;;;2217108;58;2626;-18
2023/09/10 17:04:05;;;;;;;;;;;;;;;;;;2215977;59;1810;-18
2023/09/10 17:06:35;;;;;;;;;;;;;;;;;;2220107;58;2471;-18
2023/09/10 17:09:06;;;;;;;;;;;;;;;;;;2219451;58;2249;-19
2023/09/10 17:11:39;;;;;;;;;;;;;;;;;;2220889;58;2195;-19
2023/09/10 17:14:09;;;;;;;;;;;;;;;;;;2220986;66;4140;-18
2023/09/10 17:16:40;;;;;;;;;;;;;;;;;;2217427;66;3403;-18
2023/09/10 17:19:10;;;;;;;;;;;;;;;;;;2219595;58;2676;-18
2023/09/10 17:21:40;;;;;;;;;;;;;;;;;;2221504;58;2542;-19
2023/09/10 17:24:11;;;;;;;;;;;;;;;;;;2219946;58;2296;-19
2023/09/10 17:26:41;;;;;;;;;;;;;;;;;;2217650;58;2205;-18
2023/09/10 17:29:12;;;;;;;;;;;;;;;;;;2220556;58;4827;-18
2023/09/10 17:31:42;;;;;;;;;;;;;;;;;;2221365;59;2841;-18